LFPOSOCA

Guest
Details From LFPO - Paris Orly
To SOCA - Cayenne Rochambeau
Flight Number -
Tags Generated
Created
Modified
Stats Distance 3,828 nm / 7,090 km
Max Altitude 0 ft / 0 m
Waypoints 4
Social Downloads 8
Likes 0
Share VATSIM

Download

Looking for another format? Having issues loading an existing format? Contact us
Advertisement - Login to hide

Notes

Generated

Route

LFPO AKEMO FXC SOCA

ID Type Via Altitude Latitude Longitude Leg Dist Tot Dist Heading (true) Name
O LFPO APT - 0 ft / 0 m 48.71772˚ 2.37681˚ - 0 nm - -
AKEMO FIX - 0 ft / 0 m 47.13917˚ -3.00000˚ 236 nm 236 nm 248° / 244° -
FXC NDB - 0 ft / 0 m 4.82464˚ -52.36289˚ 3591 nm 3827 nm 241° / 217° CAYENNE NDB
O SOCA APT - 0 ft / 0 m 4.81378˚ -52.37354˚ 0 nm 3828 nm 224° / 224° -

Altitude Profile

Advertisement - Login to hide

Weather


0- 5 10 15 20 25 30 35+ Temperature / ° C

Clouds and Precipitation
Forecast for 2017-12-18 06:00 UTC. Updated 35 minutes ago

Ground ~20,000 ft ~40,000 ft Winds

LFPO

Details ICAO LFPO (ORY)
Name Paris Orly
Region France
Timezone Europe/Paris (UTC+1.0)
Stats Elevation 291 ft / 89 m (AMSL)
Location 48.726360° 2.367029°
Runways 3
Magnetic Variation 0.601° E

METAR

LFPO 180330Z 27010KT 8000 BKN005 BKN012 08/07 Q1020 TEMPO 2000 -DZRA BKN003

Decode

TAF

TAF LFPO 172300Z 1800/1906 22010KT 9999 BKN008 TEMPO 1800/1805 21014G24KT 2000 -RADZ BKN003 BECMG 1806/1808 34010KT BKN018 BECMG 1900/1902 BKN008 TEMPO 1902/1906 4000 BR BKN003

Decode

Departure Runways

ID Width Length Bearing (true) Bearing (mag) Surface Threshold Offset Overrun Length
02 197 ft / 60 m 7,873 ft / 2,400 m 18.29° 17.69° Concrete 0 ft / 0 m 0 ft / 0 m
06 148 ft / 45 m 11,952 ft / 3,643 m 61.78° 61.18° Asphalt 984 ft / 300 m 197 ft / 60 m
08 148 ft / 45 m 10,868 ft / 3,313 m 74.36° 73.76° Concrete 0 ft / 0 m 1,050 ft / 320 m
20 197 ft / 60 m 7,873 ft / 2,400 m 198.30° 197.70° Concrete 0 ft / 0 m 0 ft / 0 m
24 148 ft / 45 m 11,952 ft / 3,643 m 241.81° 241.21° Asphalt 0 ft / 0 m 197 ft / 60 m
26 148 ft / 45 m 10,868 ft / 3,313 m 254.39° 253.79° Concrete 1,427 ft / 435 m 0 ft / 0 m

SOCA

Details ICAO SOCA (CAY)
Name Cayenne Rochambeau
Region French Guiana
Timezone America/Cayenne (UTC-3.0)
Stats Elevation 26 ft / 8 m (AMSL)
Location 4.819807° -52.360446°
Runways 1
Magnetic Variation 18.390° W

METAR

SOCA 180330Z AUTO 00000KT 1400 R08/1800U BR VV/// ///TCU 23/23 Q1012 TEMPO 0500 BCFG BKN003

Decode

TAF

TAF AMD SOCA 180249Z 1802/1824 VRB02KT 9999 SCT015 BKN035 TEMPO 1802/1806 0500 BCFG BKN003 TEMPO 1806/1824 4000 SHRA FEW012TCU PROB40 TEMPO 1806/1811 2000 SHRA SCT012TCU BECMG 1811/1813 08010KT PROB30 1813/1820 1000 TSRA FEW010CB PROB40 TEMPO 1823/1824 2000 SHRA SCT012TCU

Decode

Destination Runways

ID Width Length Bearing (true) Bearing (mag) Surface Threshold Offset Overrun Length
08 148 ft / 45 m 10,489 ft / 3,197 m 65.20° 83.59° Asphalt 0 ft / 0 m 244 ft / 74 m
26 148 ft / 45 m 10,489 ft / 3,197 m 245.20° 263.59° Asphalt 0 ft / 0 m 0 ft / 0 m

Popular Alternatives